Terminal Aerodrome Forecast
Issued by NWS

Home | Current Version | Previous Version | Graphics & Text | Print | Product List | Glossary On
Versions: 1 2 3 4 5 6 7 8 9 10 11 12
000
FTUS43 KGRB 231100
TAFAUW
TAF
KAUW 231133Z 2312/2412 30006KT P6SM SKC
     FM231400 30011KT P6SM SCT024
      TEMPO 2314/2317 BKN024
     FM232300 29006KT P6SM SKC
     FM240200 VRB03KT P6SM SCT250=

USA.gov is the U.S. government's official web portal to all federal, state and local government web resources and services.